Time;durP1;ratioP1;P1;durP2;ratioP2;P2;SDS_P1;SDS_P2;PMS_P1;PMS_P2;Temp;Humidity;BMP_temperature;BMP_pressure;BME280_temperature;BME280_humidity;BME280_pressure;Samples;Min_cycle;Max_cycle;Signal;HPM_P1;HPM_P2
2024/03/29 00:01:05;;;;;;;4.15;0.90;;;8.20;99.90;;;11.81;62.30;98721.91;5001056;28;20050;-82
2024/03/29 00:03:30;;;;;;;3.15;0.70;;;8.30;99.90;;;11.75;62.39;98723.00;5017227;28;20152;-81
2024/03/29 00:05:56;;;;;;;3.35;0.73;;;8.40;99.90;;;11.71;62.56;98702.78;5017487;28;20036;-82
2024/03/29 00:08:22;;;;;;;2.17;0.43;;;8.30;99.90;;;11.50;62.69;98700.00;5017495;28;20114;-82
2024/03/29 00:10:47;;;;;;;2.80;0.55;;;8.20;99.90;;;11.66;62.70;98704.38;5034887;28;20057;-81
2024/03/29 00:13:13;;;;;;;2.33;0.65;;;8.20;99.90;;;11.82;62.47;98712.59;5033784;28;20072;-83
2024/03/29 00:15:39;;;;;;;5.13;0.80;;;8.20;99.90;;;11.59;64.02;98708.50;5017050;28;20041;-81
2024/03/29 00:18:06;;;;;;;1.42;0.47;;;8.00;99.90;;;11.62;63.87;98714.22;5034992;28;20042;-82
2024/03/29 00:20:31;;;;;;;3.20;0.80;;;7.80;99.90;;;11.19;64.77;98721.78;5034688;28;20033;-81
2024/03/29 00:22:57;;;;;;;4.40;0.80;;;7.70;99.90;;;11.04;65.85;98731.53;5034958;28;20441;-81
2024/03/29 00:25:23;;;;;;;2.25;0.70;;;7.60;99.90;;;11.22;64.83;98710.31;5034909;28;20037;-81
2024/03/29 00:27:48;;;;;;;2.50;0.65;;;7.60;99.90;;;10.78;66.51;98731.44;5034897;28;20038;-82
2024/03/29 00:30:14;;;;;;;3.20;0.80;;;7.60;99.90;;;11.04;65.83;98728.00;5034823;28;20521;-82
2024/03/29 00:32:40;;;;;;;2.35;0.65;;;7.80;99.90;;;11.43;65.75;98727.56;5034720;28;20037;-83
2024/03/29 00:35:07;;;;;;;2.70;0.60;;;7.70;99.90;;;11.37;64.02;98718.53;5034667;28;20095;-82
2024/03/29 00:37:34;;;;;;;5.83;0.87;;;7.70;99.90;;;11.68;62.66;98716.97;5034848;28;20034;-82
2024/03/29 00:39:59;;;;;;;2.22;0.50;;;7.60;99.90;;;11.66;62.75;98719.97;5034572;28;20041;-83
2024/03/29 00:42:25;;;;;;;4.78;0.77;;;7.50;99.90;;;11.62;63.80;98725.16;5034489;28;20043;-82
2024/03/29 00:44:51;;;;;;;2.00;0.70;;;7.40;99.90;;;11.78;62.41;98709.59;5034258;28;20048;-83
2024/03/29 00:47:16;;;;;;;3.45;0.75;;;7.20;99.90;;;10.87;65.66;98718.09;5016836;28;20052;-82
2024/03/29 00:49:42;;;;;;;2.60;0.60;;;7.20;99.90;;;10.97;66.80;98738.31;5034184;28;20366;-82
2024/03/29 00:52:08;;;;;;;3.47;1.00;;;7.30;99.90;;;10.76;67.31;98728.16;5016896;28;20044;-82
2024/03/29 00:54:33;;;;;;;3.33;0.70;;;7.50;99.90;;;10.98;66.00;98710.78;5016344;28;20408;-82
2024/03/29 00:56:59;;;;;;;3.75;0.73;;;7.50;99.90;;;11.08;65.50;98716.28;5034189;28;20087;-82
2024/03/29 00:59:25;;;;;;;3.80;0.77;;;7.50;99.90;;;10.77;66.60;98716.16;5034361;28;20099;-82
2024/03/29 01:01:51;;;;;;;4.05;0.90;;;7.30;99.90;;;10.67;68.22;98726.19;5016341;28;20048;-83
2024/03/29 01:04:17;;;;;;;3.17;0.60;;;7.20;99.90;;;10.74;68.31;98732.22;5034722;28;20053;-83
2024/03/29 01:06:43;;;;;;;3.35;0.75;;;7.00;99.90;;;10.78;68.71;98734.16;5016480;28;20047;-82
2024/03/29 01:09:12;;;;;;;2.38;0.70;;;6.90;99.90;;;10.59;68.93;98725.59;5049646;28;20037;-82
2024/03/29 01:11:38;;;;;;;3.83;0.88;;;6.80;99.90;;;11.25;66.64;98731.63;5034925;28;20501;-83
2024/03/29 01:14:05;;;;;;;5.95;1.08;;;6.70;99.90;;;11.35;64.84;98725.38;5037092;28;20040;-83
2024/03/29 01:16:31;;;;;;;4.05;1.05;;;6.60;99.90;;;10.87;67.21;98731.75;5039184;28;20029;-82
2024/03/29 01:19:00;;;;;;;3.95;0.77;;;6.60;99.90;;;11.12;66.17;98726.66;5037472;28;20472;-83
2024/03/29 01:21:26;;;;;;;3.78;0.70;;;6.50;99.90;;;11.23;65.19;98720.16;5037476;28;20041;-82
2024/03/29 01:23:52;;;;;;;4.38;0.90;;;6.40;99.90;;;10.68;67.37;98725.94;5038304;28;20049;-82
2024/03/29 01:26:18;;;;;;;2.40;0.77;;;6.30;99.90;;;10.76;68.12;98717.25;5037033;28;20433;-82
2024/03/29 01:28:44;;;;;;;3.08;0.70;;;6.30;99.90;;;10.91;67.33;98732.03;5019661;28;20839;-82
2024/03/29 01:31:10;;;;;;;2.65;0.85;;;6.40;99.90;;;10.98;66.78;98718.97;5033756;28;20037;-83
2024/03/29 01:33:37;;;;;;;2.45;0.80;;;6.40;99.90;;;10.55;68.00;98723.66;5033461;28;20029;-82
2024/03/29 01:36:04;;;;;;;2.35;0.80;;;6.40;99.90;;;10.79;68.21;98726.81;5015788;28;20033;-82
2024/03/29 01:38:30;;;;;;;4.40;0.82;;;6.60;99.90;;;11.00;66.73;98724.97;5015487;28;20404;-82
2024/03/29 01:40:56;;;;;;;2.00;0.68;;;6.60;99.90;;;11.14;65.76;98719.00;5033286;28;20045;-82
2024/03/29 01:43:22;;;;;;;3.22;0.75;;;6.60;99.90;;;11.12;65.55;98705.66;5033199;28;20033;-82
2024/03/29 01:45:50;;;;;;;3.92;0.80;;;6.60;99.90;;;11.23;64.76;98714.69;5033210;28;20384;-82
2024/03/29 01:48:18;;;;;;;5.97;0.88;;;6.50;99.90;;;10.82;66.04;98700.88;5033239;28;20065;-82
2024/03/29 01:50:45;;;;;;;2.55;0.70;;;6.50;99.90;;;10.74;66.31;98699.47;5033084;28;20124;-82
2024/03/29 01:53:11;;;;;;;4.28;0.82;;;6.60;99.90;;;10.83;66.81;98716.16;5033065;28;20030;-82
2024/03/29 01:55:38;;;;;;;2.42;0.60;;;6.60;99.90;;;10.88;66.86;98727.13;5033040;28;20037;-82
2024/03/29 01:58:04;;;;;;;4.25;1.08;;;6.70;99.90;;;10.71;66.62;98719.94;5032973;28;20388;-82
2024/03/29 02:00:32;;;;;;;2.05;0.80;;;6.70;99.90;;;10.99;66.20;98717.06;5032744;28;20095;-82
2024/03/29 02:03:02;;;;;;;2.50;0.75;;;6.70;99.90;;;10.69;66.84;98715.81;5015438;28;20120;-82
2024/03/29 02:05:28;;;;;;;3.13;0.75;;;6.70;99.90;;;10.35;68.26;98742.31;5032783;28;20480;-81
2024/03/29 02:07:55;;;;;;;4.53;0.90;;;6.80;99.90;;;10.35;68.23;98741.53;5015993;28;20037;-81
2024/03/29 02:10:20;;;;;;;5.25;0.70;;;6.90;99.90;;;10.35;68.45;98745.06;5033094;28;20045;-81
2024/03/29 02:12:46;;;;;;;4.22;0.85;;;6.90;99.90;;;10.11;69.77;98758.22;5014657;28;20043;-81
2024/03/29 02:15:16;;;;;;;0.88;0.50;;;6.90;99.90;;;10.17;70.17;98768.09;4998368;28;20418;-81
2024/03/29 02:17:42;;;;;;;4.00;0.77;;;7.00;99.90;;;10.03;70.69;98767.69;5032525;28;20489;-81
2024/03/29 02:20:09;;;;;;;3.33;0.77;;;7.10;99.90;;;10.32;69.97;98780.19;5032524;28;20038;-81
2024/03/29 02:22:44;;;;;;;4.00;0.90;;;7.30;99.90;;;10.24;69.44;98777.94;5032196;28;20076;-82
2024/03/29 02:25:12;;;;;;;3.92;0.70;;;7.30;99.90;;;10.21;69.87;98779.28;5032552;28;20095;-81
2024/03/29 02:27:38;;;;;;;2.73;0.60;;;7.30;99.90;;;10.24;69.47;98775.22;5038896;28;20044;-82
2024/03/29 02:30:05;;;;;;;2.28;0.60;;;7.30;99.90;;;10.19;70.17;98785.00;5052146;28;20037;-82
2024/03/29 02:32:30;;;;;;;2.00;0.63;;;7.20;99.90;;;10.15;70.74;98785.75;5052225;28;20086;-80
2024/03/29 02:34:56;;;;;;;4.95;0.70;;;7.10;99.90;;;10.14;70.96;98784.13;5052258;28;20037;-81
2024/03/29 02:37:22;;;;;;;2.08;0.60;;;7.00;99.90;;;10.22;70.66;98770.03;5054168;28;20587;-80
2024/03/29 02:39:47;;;;;;;2.28;0.77;;;7.00;99.90;;;10.03;71.35;98755.97;5038284;28;20028;-80
2024/03/29 02:42:13;;;;;;;2.22;0.85;;;6.90;99.90;;;10.01;72.51;98779.94;5056292;28;20043;-80
2024/03/29 02:44:39;;;;;;;4.03;0.80;;;6.80;99.90;;;9.92;73.01;98760.50;5056169;28;20037;-80
2024/03/29 02:47:04;;;;;;;4.80;0.90;;;6.80;99.90;;;9.94;72.64;98766.50;5056047;28;20037;-79
2024/03/29 02:49:30;;;;;;;1.42;0.52;;;6.70;99.90;;;9.97;72.96;98755.13;5056100;28;20044;-79
2024/03/29 02:51:56;;;;;;;4.47;0.55;;;6.60;99.90;;;9.87;72.47;98744.94;5056032;28;20041;-80
2024/03/29 02:54:22;;;;;;;4.00;0.70;;;6.70;99.90;;;9.93;72.20;98748.53;5056015;28;20045;-79
2024/03/29 02:56:48;;;;;;;2.42;0.82;;;6.80;99.90;;;9.98;71.21;98743.16;5056023;28;20056;-80
2024/03/29 02:59:14;;;;;;;1.55;0.40;;;6.90;99.90;;;10.23;69.79;98725.34;5055944;28;20048;-79
2024/03/29 03:01:40;;;;;;;1.83;0.73;;;7.10;99.90;;;10.36;68.91;98715.91;5038101;28;20037;-80
2024/03/29 03:04:06;;;;;;;3.30;0.93;;;7.20;99.90;;;10.34;68.06;98701.69;5055936;28;20049;-80
2024/03/29 03:06:32;;;;;;;2.63;0.57;;;7.40;99.90;;;10.71;66.65;98687.22;5056008;28;20037;-82
2024/03/29 03:11:42;;;;;;;4.28;0.77;;;7.50;99.90;;;10.60;67.58;98680.06;5055848;28;20119;-82
2024/03/29 03:14:07;;;;;;;4.10;0.63;;;7.50;99.90;;;10.56;68.11;98687.97;5038092;28;20399;-83
2024/03/29 03:16:33;;;;;;;2.35;0.70;;;7.40;99.90;;;10.28;68.75;98683.66;5055640;28;20412;-81
2024/03/29 03:18:59;;;;;;;2.00;0.70;;;7.20;99.90;;;10.43;68.57;98685.69;5055833;28;20041;-82
2024/03/29 03:21:25;;;;;;;3.58;0.50;;;7.10;99.90;;;10.24;69.65;98690.72;5055654;28;20039;-80
2024/03/29 03:23:51;;;;;;;3.92;0.85;;;7.00;99.90;;;10.31;69.39;98697.59;5055589;28;20041;-80
2024/03/29 03:26:16;;;;;;;3.05;0.90;;;7.00;99.90;;;10.15;70.29;98713.03;5055541;28;20048;-81
2024/03/29 03:28:42;;;;;;;2.72;0.68;;;7.10;99.90;;;10.22;70.57;98710.09;5055355;28;20508;-79
2024/03/29 03:31:09;;;;;;;4.47;0.70;;;7.10;99.90;;;10.32;71.69;98725.66;5055454;28;20033;-81
2024/03/29 03:33:34;;;;;;;1.50;0.55;;;7.00;99.90;;;10.14;71.79;98741.38;5037433;28;20459;-79
2024/03/29 03:36:00;;;;;;;3.25;0.85;;;6.90;99.90;;;10.22;72.47;98742.78;5055450;28;20033;-81
2024/03/29 03:38:26;;;;;;;2.08;0.60;;;6.90;99.90;;;10.29;71.79;98745.28;5055166;28;20397;-81
2024/03/29 03:40:51;;;;;;;3.20;0.70;;;6.90;99.90;;;9.98;73.87;98742.31;5037381;28;20040;-80
2024/03/29 03:43:17;;;;;;;2.33;0.85;;;6.80;99.90;;;9.95;74.35;98753.72;5055265;28;20503;-80
2024/03/29 03:45:44;;;;;;;5.90;0.90;;;6.80;99.90;;;9.76;74.86;98708.63;5055057;28;20037;-82
2024/03/29 03:48:11;;;;;;;2.65;0.65;;;6.70;99.90;;;10.05;73.94;98727.41;5054845;28;20370;-82
2024/03/29 03:50:38;;;;;;;4.50;1.00;;;6.90;99.90;;;10.05;73.52;98724.66;5055118;28;20049;-82
2024/03/29 03:53:04;;;;;;;3.67;1.10;;;7.00;99.90;;;10.22;72.12;98710.09;5055210;28;20464;-82
2024/03/29 03:55:29;;;;;;;2.28;0.50;;;7.10;99.90;;;10.50;70.43;98708.91;5054884;28;20033;-82
2024/03/29 03:57:56;;;;;;;5.60;0.80;;;7.30;99.90;;;10.31;70.23;98689.44;5055002;28;20357;-82
2024/03/29 04:00:22;;;;;;;2.90;0.70;;;7.40;99.90;;;10.61;69.46;98690.72;5054756;28;20122;-82
2024/03/29 04:02:49;;;;;;;1.20;0.40;;;7.40;99.90;;;10.62;69.34;98695.06;5054877;28;20033;-82
2024/03/29 04:05:20;;;;;;;1.73;0.57;;;7.40;99.90;;;10.51;69.62;98687.94;5054983;28;20045;-82
2024/03/29 04:07:46;;;;;;;3.75;0.52;;;7.50;99.90;;;10.63;68.09;98687.72;5036883;28;20091;-82
2024/03/29 04:10:13;;;;;;;4.88;0.82;;;7.60;99.90;;;10.92;66.96;98693.56;5054955;28;20120;-82
2024/03/29 04:12:38;;;;;;;5.18;0.73;;;7.60;99.90;;;10.74;67.08;98694.88;5054809;28;20037;-81
2024/03/29 04:15:05;;;;;;;4.22;0.70;;;7.60;99.90;;;10.73;66.70;98671.41;5055784;28;20040;-82
2024/03/29 04:17:32;;;;;;;6.47;0.70;;;7.70;99.90;;;10.87;67.46;98690.81;5040034;28;20178;-81
2024/03/29 04:19:59;;;;;;;3.80;0.70;;;7.70;99.90;;;11.02;66.08;98689.25;5041105;28;20048;-83
2024/03/29 04:22:27;;;;;;;2.87;0.83;;;7.70;99.90;;;11.21;65.74;98693.13;5055630;28;20397;-82
2024/03/29 04:24:53;;;;;;;3.42;0.60;;;7.80;99.90;;;11.35;65.16;98681.69;5054638;28;20075;-83
2024/03/29 04:27:19;;;;;;;3.85;1.30;;;7.80;99.90;;;11.38;64.71;98694.81;5036577;28;20480;-83
2024/03/29 04:29:45;;;;;;;3.63;0.77;;;7.80;99.90;;;11.08;64.24;98688.97;5036543;28;20051;-83
2024/03/29 04:32:11;;;;;;;3.85;0.60;;;7.80;99.90;;;11.34;64.35;98690.97;5036660;28;20025;-83
2024/03/29 04:34:36;;;;;;;3.35;0.70;;;7.80;99.90;;;11.08;64.89;98686.25;5054256;28;20415;-81
2024/03/29 04:37:02;;;;;;;4.40;1.10;;;7.90;99.90;;;10.85;65.05;98681.25;5036367;28;20037;-82
2024/03/29 04:39:28;;;;;;;1.95;0.70;;;7.90;99.90;;;11.04;64.88;98698.00;5054223;28;20109;-83
2024/03/29 04:41:54;;;;;;;3.25;0.80;;;7.90;99.90;;;10.88;65.02;98699.84;5054154;28;20041;-82
2024/03/29 04:44:28;;;;;;;3.17;0.50;;;7.90;99.90;;;11.21;65.71;98708.69;5019811;28;20122;-82
2024/03/29 04:46:54;;;;;;;3.60;0.80;;;7.90;99.90;;;10.98;65.79;98707.22;5054005;28;20052;-83
2024/03/29 04:49:30;;;;;;;2.83;0.60;;;7.90;99.90;;;11.14;65.85;98727.19;5054007;28;20037;-82
2024/03/29 04:51:57;;;;;;;5.65;0.82;;;7.90;99.90;;;11.04;66.29;98736.19;5053973;28;20037;-83
2024/03/29 04:54:23;;;;;;;4.32;0.52;;;7.90;99.90;;;11.03;65.77;98716.25;5054111;28;20036;-82
2024/03/29 04:56:48;;;;;;;6.00;1.63;;;7.80;99.90;;;10.83;66.84;98729.81;5053824;28;20392;-82
2024/03/29 04:59:17;;;;;;;4.43;0.82;;;7.80;99.90;;;11.11;66.54;98742.22;5053041;28;20056;-82
2024/03/29 05:01:50;;;;;;;3.92;0.90;;;7.90;99.90;;;10.91;66.74;98748.41;5053968;28;20060;-83
2024/03/29 05:04:27;;;;;;;1.90;0.68;;;7.90;99.90;;;11.04;66.90;98753.38;5053846;28;20060;-82
2024/03/29 05:06:58;;;;;;;3.17;0.63;;;7.90;99.90;;;11.00;66.43;98757.72;5036038;28;20044;-82
2024/03/29 05:09:25;;;;;;;3.78;0.77;;;7.90;99.90;;;11.07;65.95;98771.94;5053617;28;20048;-83
2024/03/29 05:11:52;;;;;;;5.00;1.08;;;7.90;99.90;;;11.21;65.39;98766.81;5053867;28;20029;-83
2024/03/29 05:14:20;;;;;;;2.35;0.80;;;8.00;99.90;;;11.32;65.20;98770.41;5035834;28;20484;-83
2024/03/29 05:16:47;;;;;;;2.03;0.60;;;8.00;99.90;;;11.36;63.60;98771.50;5053411;28;20056;-82
2024/03/29 05:19:14;;;;;;;3.13;0.60;;;8.00;99.90;;;11.39;62.78;98774.78;5053445;28;20037;-83
2024/03/29 05:21:41;;;;;;;4.70;0.70;;;8.10;99.90;;;11.66;62.08;98785.53;5035533;28;20033;-82
2024/03/29 05:24:08;;;;;;;2.40;0.60;;;8.20;99.90;;;11.50;61.28;98765.53;5053401;28;20069;-82
2024/03/29 05:26:34;;;;;;;6.32;1.00;;;8.30;99.90;;;11.61;60.61;98764.47;5053318;28;20037;-82
2024/03/29 05:29:00;;;;;;;1.42;0.60;;;8.40;99.90;;;11.71;60.05;98773.78;5053252;28;20112;-82
2024/03/29 05:31:29;;;;;;;4.53;0.70;;;8.40;99.90;;;11.74;60.49;98781.44;5053082;28;20048;-82
2024/03/29 05:33:55;;;;;;;1.60;0.50;;;8.50;99.90;;;11.92;60.41;98789.09;5053093;28;20045;-83
2024/03/29 05:36:21;;;;;;;3.33;0.73;;;8.50;99.90;;;11.82;59.48;98788.28;5053067;28;20401;-82
2024/03/29 05:38:46;;;;;;;4.65;0.52;;;8.60;99.90;;;12.05;59.45;98800.66;5053065;28;20045;-82
2024/03/29 05:41:12;;;;;;;3.30;0.70;;;8.80;99.90;;;11.84;60.01;98791.56;5053113;28;20037;-83
2024/03/29 05:43:41;;;;;;;3.75;0.90;;;8.80;99.90;;;11.91;62.02;98824.91;5052958;28;20041;-82
2024/03/29 05:46:06;;;;;;;4.82;0.75;;;8.80;99.90;;;11.66;64.55;98821.03;5035178;28;20106;-81
2024/03/29 05:48:32;;;;;;;2.55;0.70;;;8.60;99.90;;;11.41;67.27;98854.53;5034768;28;20037;-81
2024/03/29 05:50:58;;;;;;;1.67;0.57;;;8.40;99.90;;;11.09;68.93;98848.09;5052909;28;20029;-80
2024/03/29 05:53:24;;;;;;;3.40;0.63;;;8.20;99.90;;;11.21;71.03;98856.06;5052832;28;20040;-81
2024/03/29 05:55:50;;;;;;;2.33;0.45;;;8.10;99.90;;;11.25;72.51;98837.25;5052714;28;20115;-82
2024/03/29 05:58:17;;;;;;;3.63;0.60;;;8.10;99.90;;;11.12;74.61;98874.03;5052767;28;20051;-82
2024/03/29 06:00:43;;;;;;;7.47;0.70;;;8.00;99.90;;;11.00;77.69;98872.31;5052523;28;20060;-83
2024/03/29 06:03:09;;;;;;;5.45;1.23;;;7.90;99.90;;;11.00;80.21;98893.31;5052706;28;20033;-83
2024/03/29 06:05:35;;;;;;;2.63;0.60;;;7.80;99.90;;;11.04;81.23;98881.63;5052560;28;20048;-83
2024/03/29 06:08:00;;;;;;;4.03;0.90;;;7.70;99.90;;;11.10;84.62;98885.22;5034970;28;20036;-84
2024/03/29 06:10:26;;;;;;;4.78;0.60;;;7.60;99.90;;;10.87;87.64;98894.59;5052622;28;20037;-84
2024/03/29 06:12:52;;;;;;;3.97;0.70;;;7.50;99.90;;;10.84;89.43;98876.03;5052675;28;20507;-85
2024/03/29 06:18:02;;;;;;;3.58;0.73;;;7.40;99.90;;;10.45;95.46;98888.81;5052667;28;20051;-83
2024/03/29 06:20:28;;;;;;;4.28;0.68;;;7.40;99.90;;;10.76;97.72;98885.53;5052484;28;20418;-85
2024/03/29 06:22:54;;;;;;;5.90;0.90;;;7.30;99.90;;;10.48;99.79;98893.75;5052442;28;20044;-84
2024/03/29 06:25:19;;;;;;;7.18;0.90;;;7.30;99.90;;;10.35;100.00;98888.72;5052419;28;20044;-84
2024/03/29 06:27:47;;;;;;;3.88;1.15;;;7.30;99.90;;;10.45;100.00;98910.63;5052251;28;20045;-84
2024/03/29 06:30:19;;;;;;;2.90;0.60;;;7.30;99.90;;;10.65;100.00;98909.97;5052402;28;20044;-83
2024/03/29 06:32:45;;;;;;;2.40;0.68;;;7.20;99.90;;;10.32;100.00;98916.47;5052400;28;20037;-83
2024/03/29 06:35:12;;;;;;;3.65;0.82;;;7.20;99.90;;;10.40;100.00;98882.47;5052356;28;20040;-83
2024/03/29 06:37:39;;;;;;;2.95;0.65;;;7.20;99.90;;;10.29;100.00;98863.31;5052210;28;20500;-82
2024/03/29 06:40:05;;;;;;;4.97;0.75;;;7.20;99.90;;;10.20;100.00;98859.38;5052276;28;20521;-83
2024/03/29 06:42:32;;;;;;;2.75;0.70;;;7.10;99.90;;;9.79;100.00;98840.72;5052210;28;20388;-82
2024/03/29 06:44:58;;;;;;;7.00;0.85;;;7.00;99.90;;;10.11;100.00;98861.78;5052144;28;20041;-83
2024/03/29 06:47:27;;;;;;;3.58;0.82;;;7.00;99.90;;;10.12;100.00;98852.53;5052159;28;20389;-82
2024/03/29 06:49:53;;;;;;;3.17;0.80;;;6.90;99.90;;;10.01;100.00;98861.66;5052121;28;20397;-82
2024/03/29 06:52:19;;;;;;;5.43;1.25;;;6.90;99.90;;;9.95;100.00;98833.56;5052197;28;20041;-83
2024/03/29 06:54:45;;;;;;;5.80;1.00;;;6.80;99.90;;;9.83;100.00;98819.25;5052022;28;20455;-83
2024/03/29 06:57:15;;;;;;;4.03;0.80;;;6.80;99.90;;;9.96;100.00;98834.38;5050820;28;20037;-82
2024/03/29 06:59:41;;;;;;;1.27;0.77;;;6.90;99.90;;;9.75;100.00;98823.25;5051867;28;20513;-83
2024/03/29 07:02:07;;;;;;;2.72;0.80;;;6.80;99.90;;;9.79;100.00;98822.50;5052119;28;20159;-83
2024/03/29 07:04:32;;;;;;;5.88;1.13;;;6.80;99.90;;;9.79;100.00;98808.03;5051980;28;20032;-83
2024/03/29 07:06:59;;;;;;;4.80;0.80;;;6.80;99.90;;;9.86;100.00;98795.06;5051998;28;20048;-83
2024/03/29 07:09:24;;;;;;;2.70;0.88;;;6.80;99.90;;;9.92;100.00;98806.81;5051871;28;20037;-81
2024/03/29 07:11:51;;;;;;;3.50;1.13;;;6.80;99.90;;;9.75;100.00;98787.84;5034192;28;20033;-82
2024/03/29 07:14:19;;;;;;;6.43;1.38;;;6.90;99.90;;;9.89;100.00;98797.28;5017651;28;20044;-82
2024/03/29 07:16:45;;;;;;;4.40;0.93;;;6.90;99.90;;;9.91;100.00;98797.00;5051889;28;20064;-82
2024/03/29 07:19:12;;;;;;;3.65;1.13;;;6.90;99.90;;;10.01;100.00;98799.84;5051924;28;20141;-82
2024/03/29 07:21:45;;;;;;;4.18;0.90;;;6.90;99.90;;;9.98;100.00;98799.50;5051798;28;20045;-82
2024/03/29 07:24:11;;;;;;;3.53;1.00;;;6.90;99.90;;;10.00;100.00;98791.91;5055080;28;20429;-80
2024/03/29 07:26:37;;;;;;;1.50;0.80;;;7.00;99.90;;;9.99;100.00;98782.09;5055486;28;20033;-82
2024/03/29 07:29:05;;;;;;;6.05;1.17;;;7.00;99.90;;;9.90;100.00;98779.00;5037558;28;20043;-82
2024/03/29 07:31:31;;;;;;;4.15;1.10;;;7.00;99.90;;;10.02;100.00;98770.66;5055496;28;20044;-82
2024/03/29 07:33:57;;;;;;;1.70;0.75;;;7.00;99.90;;;9.98;100.00;98755.94;5037761;28;20048;-82
2024/03/29 07:36:25;;;;;;;4.03;1.00;;;7.00;99.90;;;9.89;100.00;98764.59;5055380;28;20045;-78
2024/03/29 07:38:51;;;;;;;5.15;0.98;;;7.00;99.90;;;9.92;100.00;98745.00;5055230;28;20039;-81
2024/03/29 07:41:17;;;;;;;5.80;1.02;;;7.10;99.90;;;9.96;100.00;98736.31;5055387;28;20389;-82
2024/03/29 07:43:56;;;;;;;6.13;1.35;;;7.10;99.90;;;10.24;100.00;98742.50;5037488;28;20526;-81
2024/03/29 07:46:23;;;;;;;3.55;1.00;;;7.20;99.90;;;10.06;100.00;98728.19;5055310;28;20040;-82
2024/03/29 07:48:49;;;;;;;5.55;1.42;;;7.20;99.90;;;10.24;100.00;98729.72;5055183;28;20389;-82
2024/03/29 07:51:15;;;;;;;4.28;1.27;;;7.30;99.90;;;10.10;100.00;98736.69;5055164;28;20039;-81
2024/03/29 07:53:41;;;;;;;6.15;1.35;;;7.30;99.90;;;10.25;100.00;98741.44;5037322;28;20493;-80
2024/03/29 07:56:07;;;;;;;4.68;1.00;;;7.40;99.90;;;10.33;100.00;98730.03;5055025;28;20468;-82
2024/03/29 07:58:32;;;;;;;2.17;0.95;;;7.50;99.90;;;10.50;100.00;98725.28;5054832;28;20040;-82
2024/03/29 08:00:58;;;;;;;5.28;1.02;;;7.60;99.90;;;10.58;100.00;98732.16;5055071;28;20036;-81
2024/03/29 08:03:24;;;;;;;3.85;0.90;;;7.70;99.90;;;10.79;100.00;98716.69;5054936;28;20037;-83
2024/03/29 08:06:06;;;;;;;5.88;1.10;;;7.90;99.90;;;10.90;100.00;98714.03;5036985;28;20041;-81
2024/03/29 08:08:33;;;;;;;5.05;1.17;;;8.00;99.90;;;10.98;100.00;98727.16;5036739;28;20041;-82
2024/03/29 08:11:00;;;;;;;1.88;0.70;;;8.10;99.90;;;11.23;100.00;98728.34;5020374;28;20384;-82
2024/03/29 08:13:26;;;;;;;2.45;0.80;;;8.20;99.90;;;11.59;100.00;98733.88;5054694;28;20033;-81
2024/03/29 08:16:00;;;;;;;3.00;1.00;;;8.40;99.90;;;11.27;100.00;98723.97;5054685;28;20134;-81
2024/03/29 08:18:27;;;;;;;2.45;0.77;;;8.50;99.90;;;11.63;100.00;98724.06;5054597;28;20075;-82
2024/03/29 08:20:57;;;;;;;2.85;0.90;;;8.70;99.90;;;11.56;100.00;98731.69;5036706;28;20044;-82
2024/03/29 08:23:23;;;;;;;2.25;0.82;;;8.70;99.90;;;11.81;100.00;98700.03;5054734;28;20479;-81
2024/03/29 08:25:48;;;;;;;3.42;0.80;;;9.00;99.90;;;11.85;100.00;98711.25;5036870;28;20044;-82
2024/03/29 08:28:15;;;;;;;2.78;0.90;;;9.10;99.90;;;11.94;100.00;98699.50;5053173;28;20485;-82
2024/03/29 08:30:41;;;;;;;2.65;0.85;;;9.20;99.90;;;12.48;100.00;98696.44;5054492;28;20037;-83
2024/03/29 08:33:06;;;;;;;1.58;0.77;;;9.50;99.90;;;12.42;100.00;98681.97;5054433;28;20044;-82
2024/03/29 08:35:35;;;;;;;2.13;0.70;;;9.60;99.90;;;12.34;98.72;98702.50;5035665;28;20491;-81
2024/03/29 08:38:01;;;;;;;4.32;0.90;;;9.60;99.90;;;12.37;99.44;98673.78;5054438;28;20037;-83
2024/03/29 08:40:31;;;;;;;3.15;0.73;;;9.70;99.90;;;12.76;98.67;98678.59;5036526;28;20100;-83
2024/03/29 08:42:57;;;;;;;3.28;0.75;;;9.80;99.90;;;12.53;96.50;98669.09;5036468;28;20037;-82
2024/03/29 08:45:22;;;;;;;2.80;0.90;;;9.80;99.90;;;12.78;97.54;98689.25;5054412;28;20106;-82
2024/03/29 08:47:49;;;;;;;3.20;0.80;;;9.90;99.90;;;12.71;96.67;98695.00;5052981;28;20120;-83
2024/03/29 08:50:15;;;;;;;2.92;0.80;;;10.00;99.90;;;12.92;94.94;98684.00;5054420;28;20131;-83
2024/03/29 08:52:40;;;;;;;2.20;0.60;;;10.00;99.90;;;12.98;93.65;98706.69;5054271;28;20044;-83
2024/03/29 08:55:07;;;;;;;3.30;0.65;;;10.20;99.90;;;13.26;92.11;98705.19;5036691;28;20408;-83
2024/03/29 08:57:33;;;;;;;1.48;0.70;;;10.30;99.90;;;13.09;89.26;98714.56;5055138;28;20037;-84
2024/03/29 08:59:59;;;;;;;3.03;1.05;;;10.40;99.90;;;13.47;87.68;98716.03;5036784;28;20060;-82
2024/03/29 09:02:24;;;;;;;4.65;1.30;;;10.50;99.90;;;13.72;87.68;98752.59;5058090;28;20033;-82
2024/03/29 09:04:50;;;;;;;2.03;0.70;;;10.60;99.90;;;13.50;86.75;98731.91;5068846;28;20032;-82
2024/03/29 09:07:16;;;;;;;2.22;0.90;;;10.60;99.90;;;13.71;86.60;98761.94;5050146;28;20044;-81
2024/03/29 09:09:41;;;;;;;4.80;1.10;;;10.60;99.90;;;13.57;87.82;98751.59;5039972;28;20040;-84
2024/03/29 09:12:09;;;;;;;2.33;0.70;;;10.60;99.90;;;13.37;86.94;98756.06;5052951;28;20106;-81
2024/03/29 09:14:34;;;;;;;4.90;1.00;;;10.50;99.90;;;13.42;85.96;98765.34;5054081;28;20115;-83
2024/03/29 09:17:02;;;;;;;2.50;0.75;;;10.60;99.90;;;13.03;87.32;98736.78;5054193;28;20277;-84
2024/03/29 09:19:30;;;;;;;4.72;0.90;;;10.50;99.90;;;13.35;88.24;98750.06;5054203;28;20033;-81
2024/03/29 09:21:56;;;;;;;0.95;0.32;;;10.40;99.90;;;13.18;89.02;98736.72;5020071;28;20053;-82
2024/03/29 09:24:22;;;;;;;3.05;1.00;;;10.50;99.90;;;13.49;87.40;98736.59;5036305;28;20041;-81
2024/03/29 09:26:51;;;;;;;5.03;1.42;;;10.50;99.90;;;13.77;85.34;98734.22;5052516;28;20090;-81
2024/03/29 09:29:20;;;;;;;4.57;1.00;;;10.70;99.90;;;13.75;83.22;98719.16;5053408;28;20041;-83
2024/03/29 09:31:46;;;;;;;3.15;1.08;;;10.90;99.90;;;13.96;84.37;98725.31;5053809;28;20075;-82
2024/03/29 09:34:12;;;;;;;8.15;1.70;;;;;;;14.12;82.95;98717.78;5052181;28;20072;-82
2024/03/29 09:36:38;;;;;;;4.43;1.13;;;11.00;99.90;;;14.34;82.35;98717.28;5053332;28;20057;-82
2024/03/29 09:39:04;;;;;;;2.72;0.47;;;11.30;99.90;;;14.26;83.29;98697.91;5035626;28;20484;-83
2024/03/29 09:41:34;;;;;;;2.03;0.65;;;;;;;14.29;82.70;98716.50;5053432;28;20041;-82
2024/03/29 09:44:05;;;;;;;1.23;0.57;;;;;;;13.83;84.49;98735.00;5053665;28;20037;-82
2024/03/29 09:46:33;;;;;;;1.98;0.52;;;11.30;99.90;;;14.16;86.62;98728.97;5035501;28;20037;-82
2024/03/29 09:49:00;;;;;;;2.33;0.65;;;11.30;99.90;;;14.21;85.69;98718.78;5053673;28;20126;-82
2024/03/29 09:51:27;;;;;;;3.60;0.90;;;11.40;99.90;;;14.52;83.39;98713.00;5053323;28;20040;-83
2024/03/29 09:53:57;;;;;;;1.73;0.57;;;11.60;99.90;;;14.47;82.76;98710.31;5053319;28;20037;-81
2024/03/29 09:56:25;;;;;;;2.63;0.77;;;11.70;99.90;;;14.39;82.97;98721.91;5036072;28;20414;-82
2024/03/29 09:58:51;;;;;;;2.75;0.85;;;11.70;99.90;;;14.61;83.98;98717.88;5052840;28;20081;-83
2024/03/29 10:01:18;;;;;;;1.63;0.45;;;;;;;14.67;81.43;98725.72;5052281;28;20052;-82
2024/03/29 10:03:49;;;;;;;1.73;0.52;;;11.80;99.90;;;14.65;81.81;98710.69;5053439;28;20485;-83
2024/03/29 10:06:17;;;;;;;2.95;0.60;;;12.00;99.90;;;14.82;84.27;98724.78;5053262;28;20477;-81
2024/03/29 10:08:43;;;;;;;2.28;0.73;;;12.00;99.90;;;14.80;83.40;98724.25;5035299;28;20044;-83
2024/03/29 10:11:10;;;;;;;2.42;0.70;;;11.80;99.90;;;14.54;84.54;98737.41;5035857;28;20402;-83
2024/03/29 10:13:37;;;;;;;1.47;0.40;;;11.70;99.90;;;14.73;84.72;98734.75;5053306;28;20077;-82
2024/03/29 10:16:04;;;;;;;2.47;0.70;;;11.70;99.90;;;14.70;83.54;98749.03;5053415;28;20041;-82
2024/03/29 10:18:30;;;;;;;1.55;0.60;;;11.80;99.90;;;14.76;82.56;98739.66;5034858;28;20033;-81
2024/03/29 10:21:01;;;;;;;1.40;0.70;;;11.90;99.90;;;15.19;82.21;98746.31;5035015;28;20047;-82
2024/03/29 10:23:27;;;;;;;1.77;0.55;;;12.00;99.90;;;15.61;79.43;98736.41;5052559;28;20395;-82
2024/03/29 10:25:53;;;;;;;1.25;0.60;;;12.40;99.90;;;15.77;78.99;98717.75;5051296;28;20048;-83
2024/03/29 10:28:19;;;;;;;3.60;0.82;;;12.80;99.90;;;15.72;77.96;98728.81;5052922;28;20554;-82